sensor_id;sensor_type;location;lat;lon;timestamp;P1;durP1;ratioP1;P2;durP2;ratioP2
46415;SDS011;32620;51.704;7.822;2023-05-18T00:01:17;14.02;;;5.70;;
46415;SDS011;32620;51.704;7.822;2023-05-18T00:03:43;17.15;;;5.55;;
46415;SDS011;32620;51.704;7.822;2023-05-18T00:06:09;14.18;;;6.00;;
46415;SDS011;32620;51.704;7.822;2023-05-18T00:08:35;15.52;;;5.97;;
46415;SDS011;32620;51.704;7.822;2023-05-18T00:11:02;17.65;;;6.10;;
46415;SDS011;32620;51.704;7.822;2023-05-18T00:13:28;13.43;;;6.00;;
46415;SDS011;32620;51.704;7.822;2023-05-18T00:15:54;15.77;;;5.85;;
46415;SDS011;32620;51.704;7.822;2023-05-18T00:18:20;15.60;;;6.65;;
46415;SDS011;32620;51.704;7.822;2023-05-18T00:20:49;20.35;;;6.40;;
46415;SDS011;32620;51.704;7.822;2023-05-18T00:23:15;13.70;;;6.53;;
46415;SDS011;32620;51.704;7.822;2023-05-18T00:28:16;14.32;;;6.70;;
46415;SDS011;32620;51.704;7.822;2023-05-18T00:30:42;13.60;;;6.38;;
46415;SDS011;32620;51.704;7.822;2023-05-18T00:35:36;16.58;;;6.60;;
46415;SDS011;32620;51.704;7.822;2023-05-18T00:40:38;19.10;;;6.07;;
46415;SDS011;32620;51.704;7.822;2023-05-18T00:43:03;14.93;;;6.38;;
46415;SDS011;32620;51.704;7.822;2023-05-18T00:45:29;12.18;;;5.63;;
46415;SDS011;32620;51.704;7.822;2023-05-18T00:47:55;15.32;;;6.13;;
46415;SDS011;32620;51.704;7.822;2023-05-18T00:55:41;18.10;;;6.45;;
46415;SDS011;32620;51.704;7.822;2023-05-18T00:58:07;26.02;;;6.40;;
46415;SDS011;32620;51.704;7.822;2023-05-18T01:00:32;14.63;;;6.53;;
46415;SDS011;32620;51.704;7.822;2023-05-18T01:03:01;18.30;;;6.50;;
46415;SDS011;32620;51.704;7.822;2023-05-18T01:05:28;16.13;;;6.18;;
46415;SDS011;32620;51.704;7.822;2023-05-18T01:07:53;14.75;;;7.03;;
46415;SDS011;32620;51.704;7.822;2023-05-18T01:12:56;16.40;;;6.38;;
46415;SDS011;32620;51.704;7.822;2023-05-18T01:18:13;18.30;;;6.45;;
46415;SDS011;32620;51.704;7.822;2023-05-18T01:23:19;20.48;;;7.05;;
46415;SDS011;32620;51.704;7.822;2023-05-18T01:26:05;18.10;;;8.18;;
46415;SDS011;32620;51.704;7.822;2023-05-18T01:31:19;16.52;;;6.60;;
46415;SDS011;32620;51.704;7.822;2023-05-18T01:33:45;17.35;;;7.00;;
46415;SDS011;32620;51.704;7.822;2023-05-18T01:38:46;21.83;;;7.45;;
46415;SDS011;32620;51.704;7.822;2023-05-18T01:46:30;14.98;;;7.28;;
46415;SDS011;32620;51.704;7.822;2023-05-18T01:52:06;12.85;;;6.72;;
46415;SDS011;32620;51.704;7.822;2023-05-18T01:54:49;18.85;;;7.88;;
46415;SDS011;32620;51.704;7.822;2023-05-18T01:57:19;13.45;;;7.28;;
46415;SDS011;32620;51.704;7.822;2023-05-18T02:00:05;14.90;;;7.85;;
46415;SDS011;32620;51.704;7.822;2023-05-18T02:02:33;22.95;;;7.82;;
46415;SDS011;32620;51.704;7.822;2023-05-18T02:07:24;21.13;;;7.80;;
46415;SDS011;32620;51.704;7.822;2023-05-18T02:09:50;19.40;;;7.28;;
46415;SDS011;32620;51.704;7.822;2023-05-18T02:12:59;19.75;;;7.60;;
46415;SDS011;32620;51.704;7.822;2023-05-18T02:15:24;16.10;;;7.82;;
46415;SDS011;32620;51.704;7.822;2023-05-18T02:17:50;22.42;;;7.82;;
46415;SDS011;32620;51.704;7.822;2023-05-18T02:20:15;17.92;;;7.38;;
46415;SDS011;32620;51.704;7.822;2023-05-18T02:22:42;21.05;;;7.57;;
46415;SDS011;32620;51.704;7.822;2023-05-18T02:25:08;22.52;;;7.47;;
46415;SDS011;32620;51.704;7.822;2023-05-18T02:30:09;23.23;;;8.13;;
46415;SDS011;32620;51.704;7.822;2023-05-18T02:32:36;22.42;;;9.00;;
46415;SDS011;32620;51.704;7.822;2023-05-18T02:37:38;19.92;;;7.70;;
46415;SDS011;32620;51.704;7.822;2023-05-18T02:40:08;19.63;;;7.65;;
46415;SDS011;32620;51.704;7.822;2023-05-18T02:42:37;18.23;;;7.65;;
46415;SDS011;32620;51.704;7.822;2023-05-18T02:47:31;15.48;;;7.60;;
46415;SDS011;32620;51.704;7.822;2023-05-18T02:49:57;13.57;;;7.65;;
46415;SDS011;32620;51.704;7.822;2023-05-18T02:52:22;24.33;;;7.93;;
46415;SDS011;32620;51.704;7.822;2023-05-18T02:54:48;18.88;;;8.45;;
46415;SDS011;32620;51.704;7.822;2023-05-18T02:57:13;22.55;;;7.97;;
46415;SDS011;32620;51.704;7.822;2023-05-18T02:59:39;23.20;;;8.57;;
46415;SDS011;32620;51.704;7.822;2023-05-18T03:02:06;18.77;;;8.82;;
46415;SDS011;32620;51.704;7.822;2023-05-18T03:04:31;26.67;;;8.90;;
46415;SDS011;32620;51.704;7.822;2023-05-18T03:09:28;21.90;;;8.63;;
46415;SDS011;32620;51.704;7.822;2023-05-18T03:14:22;19.55;;;8.30;;
46415;SDS011;32620;51.704;7.822;2023-05-18T03:16:47;22.60;;;8.57;;
46415;SDS011;32620;51.704;7.822;2023-05-18T03:19:18;22.45;;;8.38;;
46415;SDS011;32620;51.704;7.822;2023-05-18T03:21:44;19.35;;;8.68;;
46415;SDS011;32620;51.704;7.822;2023-05-18T03:24:09;20.70;;;8.15;;
46415;SDS011;32620;51.704;7.822;2023-05-18T03:29:13;22.95;;;7.93;;
46415;SDS011;32620;51.704;7.822;2023-05-18T03:31:39;24.73;;;9.70;;
46415;SDS011;32620;51.704;7.822;2023-05-18T03:34:05;18.20;;;8.43;;
46415;SDS011;32620;51.704;7.822;2023-05-18T03:36:43;21.30;;;8.90;;
46415;SDS011;32620;51.704;7.822;2023-05-18T03:42:04;21.83;;;9.38;;
46415;SDS011;32620;51.704;7.822;2023-05-18T03:47:00;19.05;;;9.18;;
46415;SDS011;32620;51.704;7.822;2023-05-18T03:49:39;25.40;;;8.60;;
46415;SDS011;32620;51.704;7.822;2023-05-18T03:52:04;24.88;;;9.10;;
46415;SDS011;32620;51.704;7.822;2023-05-18T03:54:31;21.40;;;8.65;;
46415;SDS011;32620;51.704;7.822;2023-05-18T03:56:56;23.20;;;10.23;;
46415;SDS011;32620;51.704;7.822;2023-05-18T04:02:44;22.77;;;9.43;;
46415;SDS011;32620;51.704;7.822;2023-05-18T04:05:10;22.13;;;8.85;;
46415;SDS011;32620;51.704;7.822;2023-05-18T04:07:36;17.38;;;9.32;;
46415;SDS011;32620;51.704;7.822;2023-05-18T04:10:04;17.10;;;8.55;;
46415;SDS011;32620;51.704;7.822;2023-05-18T04:12:32;19.85;;;8.60;;
46415;SDS011;32620;51.704;7.822;2023-05-18T04:14:58;22.48;;;9.40;;
46415;SDS011;32620;51.704;7.822;2023-05-18T04:20:03;18.02;;;9.55;;
46415;SDS011;32620;51.704;7.822;2023-05-18T04:22:45;22.02;;;9.18;;
46415;SDS011;32620;51.704;7.822;2023-05-18T04:25:13;21.02;;;8.68;;
46415;SDS011;32620;51.704;7.822;2023-05-18T04:27:39;19.63;;;9.00;;
46415;SDS011;32620;51.704;7.822;2023-05-18T04:32:40;18.23;;;8.50;;
46415;SDS011;32620;51.704;7.822;2023-05-18T04:41:03;17.40;;;6.80;;
46415;SDS011;32620;51.704;7.822;2023-05-18T04:46:00;16.50;;;5.85;;
46415;SDS011;32620;51.704;7.822;2023-05-18T04:48:26;13.50;;;5.80;;
46415;SDS011;32620;51.704;7.822;2023-05-18T04:53:22;13.95;;;5.22;;
46415;SDS011;32620;51.704;7.822;2023-05-18T04:58:44;15.85;;;5.53;;
46415;SDS011;32620;51.704;7.822;2023-05-18T05:03:40;14.02;;;5.68;;
46415;SDS011;32620;51.704;7.822;2023-05-18T05:06:06;14.20;;;5.47;;
46415;SDS011;32620;51.704;7.822;2023-05-18T05:11:07;11.77;;;6.22;;
46415;SDS011;32620;51.704;7.822;2023-05-18T05:13:33;16.42;;;6.40;;
46415;SDS011;32620;51.704;7.822;2023-05-18T05:16:00;14.02;;;6.75;;
46415;SDS011;32620;51.704;7.822;2023-05-18T05:18:25;12.63;;;5.75;;
46415;SDS011;32620;51.704;7.822;2023-05-18T05:23:21;14.00;;;6.38;;
46415;SDS011;32620;51.704;7.822;2023-05-18T05:28:17;17.02;;;6.20;;
46415;SDS011;32620;51.704;7.822;2023-05-18T05:30:46;13.27;;;5.80;;
46415;SDS011;32620;51.704;7.822;2023-05-18T05:35:37;10.68;;;4.82;;
46415;SDS011;32620;51.704;7.822;2023-05-18T05:43:08;10.93;;;4.13;;
46415;SDS011;32620;51.704;7.822;2023-05-18T05:53:11;10.18;;;3.83;;
46415;SDS011;32620;51.704;7.822;2023-05-18T05:55:37;14.38;;;4.15;;
46415;SDS011;32620;51.704;7.822;2023-05-18T06:00:33;10.02;;;3.50;;
46415;SDS011;32620;51.704;7.822;2023-05-18T06:02:59;12.23;;;3.80;;
46415;SDS011;32620;51.704;7.822;2023-05-18T06:05:24;10.48;;;4.28;;
46415;SDS011;32620;51.704;7.822;2023-05-18T06:07:50;10.95;;;4.15;;
46415;SDS011;32620;51.704;7.822;2023-05-18T06:10:15;12.77;;;3.72;;
46415;SDS011;32620;51.704;7.822;2023-05-18T06:12:56;11.32;;;4.13;;
46415;SDS011;32620;51.704;7.822;2023-05-18T06:15:21;13.68;;;3.83;;
46415;SDS011;32620;51.704;7.822;2023-05-18T06:17:47;7.50;;;3.17;;
46415;SDS011;32620;51.704;7.822;2023-05-18T06:20:13;10.45;;;3.63;;
46415;SDS011;32620;51.704;7.822;2023-05-18T06:22:39;12.68;;;3.92;;
46415;SDS011;32620;51.704;7.822;2023-05-18T06:30:03;8.80;;;3.63;;
46415;SDS011;32620;51.704;7.822;2023-05-18T06:32:31;14.15;;;4.10;;
46415;SDS011;32620;51.704;7.822;2023-05-18T06:34:57;9.93;;;3.58;;
46415;SDS011;32620;51.704;7.822;2023-05-18T06:37:23;8.48;;;3.25;;
46415;SDS011;32620;51.704;7.822;2023-05-18T06:39:48;10.35;;;3.83;;
46415;SDS011;32620;51.704;7.822;2023-05-18T06:42:14;7.55;;;2.92;;
46415;SDS011;32620;51.704;7.822;2023-05-18T06:47:15;9.70;;;3.60;;
46415;SDS011;32620;51.704;7.822;2023-05-18T06:52:16;7.35;;;3.22;;
46415;SDS011;32620;51.704;7.822;2023-05-18T06:54:42;11.90;;;3.55;;
46415;SDS011;32620;51.704;7.822;2023-05-18T06:57:07;9.48;;;3.40;;
46415;SDS011;32620;51.704;7.822;2023-05-18T06:59:33;8.43;;;3.17;;
46415;SDS011;32620;51.704;7.822;2023-05-18T07:01:59;9.57;;;3.92;;
46415;SDS011;32620;51.704;7.822;2023-05-18T07:04:24;16.80;;;3.63;;
46415;SDS011;32620;51.704;7.822;2023-05-18T07:06:50;7.22;;;3.55;;
46415;SDS011;32620;51.704;7.822;2023-05-18T07:09:20;8.98;;;3.65;;
46415;SDS011;32620;51.704;7.822;2023-05-18T07:11:47;9.40;;;3.78;;
46415;SDS011;32620;51.704;7.822;2023-05-18T07:14:13;7.75;;;2.75;;
46415;SDS011;32620;51.704;7.822;2023-05-18T07:16:38;7.70;;;3.00;;
46415;SDS011;32620;51.704;7.822;2023-05-18T07:19:04;8.35;;;3.33;;
46415;SDS011;32620;51.704;7.822;2023-05-18T07:21:31;7.80;;;3.22;;
46415;SDS011;32620;51.704;7.822;2023-05-18T07:24:06;8.43;;;2.72;;
46415;SDS011;32620;51.704;7.822;2023-05-18T07:26:31;11.77;;;3.60;;
46415;SDS011;32620;51.704;7.822;2023-05-18T07:28:57;9.48;;;3.30;;
46415;SDS011;32620;51.704;7.822;2023-05-18T07:31:22;10.57;;;3.25;;
46415;SDS011;32620;51.704;7.822;2023-05-18T07:36:17;9.98;;;3.10;;
46415;SDS011;32620;51.704;7.822;2023-05-18T07:38:42;11.50;;;3.55;;
46415;SDS011;32620;51.704;7.822;2023-05-18T07:41:08;9.48;;;3.75;;
46415;SDS011;32620;51.704;7.822;2023-05-18T07:43:34;13.10;;;4.07;;
46415;SDS011;32620;51.704;7.822;2023-05-18T07:46:00;6.20;;;2.83;;
46415;SDS011;32620;51.704;7.822;2023-05-18T07:48:25;10.40;;;3.53;;
46415;SDS011;32620;51.704;7.822;2023-05-18T07:50:54;14.55;;;3.60;;
46415;SDS011;32620;51.704;7.822;2023-05-18T07:53:47;12.27;;;3.90;;
46415;SDS011;32620;51.704;7.822;2023-05-18T07:56:13;10.00;;;3.53;;
46415;SDS011;32620;51.704;7.822;2023-05-18T07:58:39;11.50;;;3.15;;
46415;SDS011;32620;51.704;7.822;2023-05-18T08:01:04;10.57;;;3.20;;
46415;SDS011;32620;51.704;7.822;2023-05-18T08:03:33;10.50;;;3.28;;
46415;SDS011;32620;51.704;7.822;2023-05-18T08:06:10;10.10;;;3.47;;
46415;SDS011;32620;51.704;7.822;2023-05-18T08:11:02;8.32;;;3.15;;
46415;SDS011;32620;51.704;7.822;2023-05-18T08:13:28;13.43;;;3.78;;
46415;SDS011;32620;51.704;7.822;2023-05-18T08:15:54;10.25;;;3.55;;
46415;SDS011;32620;51.704;7.822;2023-05-18T08:21:41;11.93;;;4.10;;
46415;SDS011;32620;51.704;7.822;2023-05-18T08:27:35;13.00;;;3.80;;
46415;SDS011;32620;51.704;7.822;2023-05-18T08:32:36;12.93;;;3.60;;
46415;SDS011;32620;51.704;7.822;2023-05-18T08:35:05;10.55;;;3.92;;
46415;SDS011;32620;51.704;7.822;2023-05-18T08:37:32;12.13;;;4.20;;
46415;SDS011;32620;51.704;7.822;2023-05-18T08:39:58;9.05;;;3.53;;
46415;SDS011;32620;51.704;7.822;2023-05-18T08:45:26;7.88;;;3.53;;
46415;SDS011;32620;51.704;7.822;2023-05-18T08:48:03;10.60;;;3.50;;
46415;SDS011;32620;51.704;7.822;2023-05-18T08:50:30;7.45;;;3.55;;
46415;SDS011;32620;51.704;7.822;2023-05-18T08:52:59;12.23;;;3.90;;
46415;SDS011;32620;51.704;7.822;2023-05-18T08:57:54;11.65;;;3.65;;
46415;SDS011;32620;51.704;7.822;2023-05-18T09:00:23;8.50;;;3.22;;
46415;SDS011;32620;51.704;7.822;2023-05-18T09:02:50;7.90;;;3.17;;
46415;SDS011;32620;51.704;7.822;2023-05-18T09:05:15;10.70;;;3.90;;
46415;SDS011;32620;51.704;7.822;2023-05-18T09:10:18;12.32;;;4.32;;
46415;SDS011;32620;51.704;7.822;2023-05-18T09:15:13;7.72;;;3.70;;
46415;SDS011;32620;51.704;7.822;2023-05-18T09:20:08;10.95;;;3.72;;
46415;SDS011;32620;51.704;7.822;2023-05-18T09:22:34;11.18;;;3.78;;
46415;SDS011;32620;51.704;7.822;2023-05-18T09:27:36;10.93;;;3.97;;
46415;SDS011;32620;51.704;7.822;2023-05-18T09:30:02;12.98;;;4.00;;
46415;SDS011;32620;51.704;7.822;2023-05-18T09:32:29;10.82;;;3.63;;
46415;SDS011;32620;51.704;7.822;2023-05-18T09:41:35;9.27;;;3.85;;
46415;SDS011;32620;51.704;7.822;2023-05-18T09:44:03;7.22;;;3.85;;
46415;SDS011;32620;51.704;7.822;2023-05-18T09:46:34;10.88;;;3.67;;
46415;SDS011;32620;51.704;7.822;2023-05-18T09:49:02;7.82;;;3.60;;
46415;SDS011;32620;51.704;7.822;2023-05-18T09:53:56;11.25;;;3.85;;
46415;SDS011;32620;51.704;7.822;2023-05-18T09:56:23;9.73;;;3.80;;
46415;SDS011;32620;51.704;7.822;2023-05-18T09:58:51;10.27;;;3.92;;
46415;SDS011;32620;51.704;7.822;2023-05-18T10:01:17;9.75;;;3.65;;
46415;SDS011;32620;51.704;7.822;2023-05-18T10:03:43;11.10;;;4.20;;
46415;SDS011;32620;51.704;7.822;2023-05-18T10:06:13;9.77;;;4.25;;
46415;SDS011;32620;51.704;7.822;2023-05-18T10:08:38;10.52;;;4.05;;
46415;SDS011;32620;51.704;7.822;2023-05-18T10:13:40;9.30;;;3.70;;
46415;SDS011;32620;51.704;7.822;2023-05-18T10:18:37;10.77;;;4.03;;
46415;SDS011;32620;51.704;7.822;2023-05-18T10:21:03;11.98;;;3.90;;
46415;SDS011;32620;51.704;7.822;2023-05-18T10:23:33;8.23;;;3.88;;
46415;SDS011;32620;51.704;7.822;2023-05-18T10:25:59;11.35;;;3.95;;
46415;SDS011;32620;51.704;7.822;2023-05-18T10:28:30;12.13;;;3.83;;
46415;SDS011;32620;51.704;7.822;2023-05-18T10:31:01;10.17;;;4.20;;
46415;SDS011;32620;51.704;7.822;2023-05-18T10:33:30;9.77;;;4.07;;
46415;SDS011;32620;51.704;7.822;2023-05-18T10:38:29;10.20;;;4.13;;
46415;SDS011;32620;51.704;7.822;2023-05-18T10:40:56;7.93;;;3.97;;
46415;SDS011;32620;51.704;7.822;2023-05-18T10:43:24;13.25;;;4.22;;
46415;SDS011;32620;51.704;7.822;2023-05-18T10:45:52;10.50;;;4.28;;
46415;SDS011;32620;51.704;7.822;2023-05-18T10:53:16;15.75;;;4.97;;
46415;SDS011;32620;51.704;7.822;2023-05-18T10:55:43;10.45;;;4.20;;
46415;SDS011;32620;51.704;7.822;2023-05-18T10:58:10;8.88;;;4.35;;
46415;SDS011;32620;51.704;7.822;2023-05-18T11:00:38;11.10;;;4.47;;
46415;SDS011;32620;51.704;7.822;2023-05-18T11:03:07;13.13;;;4.93;;
46415;SDS011;32620;51.704;7.822;2023-05-18T11:05:39;13.18;;;4.80;;
46415;SDS011;32620;51.704;7.822;2023-05-18T11:08:05;10.68;;;4.43;;
46415;SDS011;32620;51.704;7.822;2023-05-18T11:10:40;13.65;;;4.38;;
46415;SDS011;32620;51.704;7.822;2023-05-18T11:13:07;8.25;;;3.78;;
46415;SDS011;32620;51.704;7.822;2023-05-18T11:16:06;11.43;;;4.22;;
46415;SDS011;32620;51.704;7.822;2023-05-18T11:24:20;11.20;;;4.32;;
46415;SDS011;32620;51.704;7.822;2023-05-18T11:29:33;12.73;;;4.85;;
46415;SDS011;32620;51.704;7.822;2023-05-18T11:32:00;11.07;;;4.78;;
46415;SDS011;32620;51.704;7.822;2023-05-18T11:34:57;11.65;;;4.60;;
46415;SDS011;32620;51.704;7.822;2023-05-18T11:37:15;12.07;;;4.18;;
46415;SDS011;32620;51.704;7.822;2023-05-18T11:39:41;11.00;;;4.25;;
46415;SDS011;32620;51.704;7.822;2023-05-18T11:42:18;11.75;;;4.03;;
46415;SDS011;32620;51.704;7.822;2023-05-18T11:44:50;8.73;;;4.15;;
46415;SDS011;32620;51.704;7.822;2023-05-18T11:47:22;11.60;;;4.53;;
46415;SDS011;32620;51.704;7.822;2023-05-18T11:50:14;10.50;;;3.80;;
46415;SDS011;32620;51.704;7.822;2023-05-18T11:52:50;12.88;;;4.55;;
46415;SDS011;32620;51.704;7.822;2023-05-18T11:55:18;9.98;;;4.00;;
46415;SDS011;32620;51.704;7.822;2023-05-18T11:57:59;11.48;;;4.65;;
46415;SDS011;32620;51.704;7.822;2023-05-18T12:00:25;13.30;;;5.10;;
46415;SDS011;32620;51.704;7.822;2023-05-18T12:05:29;12.85;;;4.80;;
46415;SDS011;32620;51.704;7.822;2023-05-18T12:07:56;10.70;;;4.03;;
46415;SDS011;32620;51.704;7.822;2023-05-18T12:13:11;10.95;;;3.90;;
46415;SDS011;32620;51.704;7.822;2023-05-18T12:15:40;10.80;;;4.43;;
46415;SDS011;32620;51.704;7.822;2023-05-18T12:18:34;11.23;;;4.60;;
46415;SDS011;32620;51.704;7.822;2023-05-18T12:23:34;9.57;;;4.15;;
46415;SDS011;32620;51.704;7.822;2023-05-18T12:26:02;9.43;;;4.38;;
46415;SDS011;32620;51.704;7.822;2023-05-18T12:38:41;9.13;;;4.47;;
46415;SDS011;32620;51.704;7.822;2023-05-18T12:41:06;12.50;;;4.35;;
46415;SDS011;32620;51.704;7.822;2023-05-18T12:43:34;11.85;;;4.60;;
46415;SDS011;32620;51.704;7.822;2023-05-18T12:48:37;16.17;;;4.80;;
46415;SDS011;32620;51.704;7.822;2023-05-18T12:53:41;8.55;;;4.28;;
46415;SDS011;32620;51.704;7.822;2023-05-18T12:56:07;12.75;;;4.18;;
46415;SDS011;32620;51.704;7.822;2023-05-18T12:58:35;10.18;;;4.15;;
46415;SDS011;32620;51.704;7.822;2023-05-18T13:01:09;9.75;;;3.67;;
46415;SDS011;32620;51.704;7.822;2023-05-18T13:03:38;13.25;;;4.20;;
46415;SDS011;32620;51.704;7.822;2023-05-18T13:06:05;8.88;;;3.63;;
46415;SDS011;32620;51.704;7.822;2023-05-18T13:08:32;11.20;;;3.90;;
46415;SDS011;32620;51.704;7.822;2023-05-18T13:11:03;9.60;;;3.97;;
46415;SDS011;32620;51.704;7.822;2023-05-18T13:14:18;11.20;;;4.47;;
46415;SDS011;32620;51.704;7.822;2023-05-18T13:16:44;12.38;;;4.50;;
46415;SDS011;32620;51.704;7.822;2023-05-18T13:19:10;8.60;;;4.05;;
46415;SDS011;32620;51.704;7.822;2023-05-18T13:21:40;10.95;;;4.53;;
46415;SDS011;32620;51.704;7.822;2023-05-18T13:24:06;12.38;;;4.50;;
46415;SDS011;32620;51.704;7.822;2023-05-18T13:26:31;11.32;;;3.97;;
46415;SDS011;32620;51.704;7.822;2023-05-18T13:31:28;10.60;;;4.53;;
46415;SDS011;32620;51.704;7.822;2023-05-18T13:34:12;10.38;;;4.32;;
46415;SDS011;32620;51.704;7.822;2023-05-18T13:36:38;12.30;;;4.40;;
46415;SDS011;32620;51.704;7.822;2023-05-18T13:39:04;9.38;;;4.07;;
46415;SDS011;32620;51.704;7.822;2023-05-18T13:43:59;11.65;;;4.22;;
46415;SDS011;32620;51.704;7.822;2023-05-18T13:46:24;9.32;;;4.18;;
46415;SDS011;32620;51.704;7.822;2023-05-18T13:52:01;11.55;;;4.30;;
46415;SDS011;32620;51.704;7.822;2023-05-18T13:54:26;10.63;;;4.10;;
46415;SDS011;32620;51.704;7.822;2023-05-18T13:56:52;10.02;;;4.45;;
46415;SDS011;32620;51.704;7.822;2023-05-18T13:59:18;10.20;;;4.22;;
46415;SDS011;32620;51.704;7.822;2023-05-18T14:01:45;10.65;;;4.60;;
46415;SDS011;32620;51.704;7.822;2023-05-18T14:04:13;10.63;;;3.88;;
46415;SDS011;32620;51.704;7.822;2023-05-18T14:09:08;17.30;;;5.25;;
46415;SDS011;32620;51.704;7.822;2023-05-18T14:11:34;11.50;;;4.15;;
46415;SDS011;32620;51.704;7.822;2023-05-18T14:14:06;6.72;;;3.60;;
46415;SDS011;32620;51.704;7.822;2023-05-18T14:16:36;9.38;;;4.22;;
46415;SDS011;32620;51.704;7.822;2023-05-18T14:21:37;10.57;;;3.83;;
46415;SDS011;32620;51.704;7.822;2023-05-18T14:24:02;11.45;;;3.67;;
46415;SDS011;32620;51.704;7.822;2023-05-18T14:26:31;10.00;;;3.80;;
46415;SDS011;32620;51.704;7.822;2023-05-18T14:31:26;9.90;;;4.18;;
46415;SDS011;32620;51.704;7.822;2023-05-18T14:33:51;9.02;;;3.35;;
46415;SDS011;32620;51.704;7.822;2023-05-18T14:36:17;11.73;;;3.85;;
46415;SDS011;32620;51.704;7.822;2023-05-18T14:38:42;10.32;;;3.85;;
46415;SDS011;32620;51.704;7.822;2023-05-18T14:41:10;15.00;;;4.43;;
46415;SDS011;32620;51.704;7.822;2023-05-18T14:43:35;11.38;;;3.38;;
46415;SDS011;32620;51.704;7.822;2023-05-18T14:48:33;9.85;;;3.50;;
46415;SDS011;32620;51.704;7.822;2023-05-18T14:50:59;9.30;;;3.90;;
46415;SDS011;32620;51.704;7.822;2023-05-18T14:53:24;10.88;;;4.00;;
46415;SDS011;32620;51.704;7.822;2023-05-18T14:55:51;15.23;;;4.07;;
46415;SDS011;32620;51.704;7.822;2023-05-18T14:58:16;8.18;;;3.50;;
46415;SDS011;32620;51.704;7.822;2023-05-18T15:03:15;11.63;;;4.10;;
46415;SDS011;32620;51.704;7.822;2023-05-18T15:05:41;9.18;;;3.70;;
46415;SDS011;32620;51.704;7.822;2023-05-18T15:08:09;14.63;;;4.30;;
46415;SDS011;32620;51.704;7.822;2023-05-18T15:10:35;13.05;;;3.95;;
46415;SDS011;32620;51.704;7.822;2023-05-18T15:13:00;10.20;;;4.15;;
46415;SDS011;32620;51.704;7.822;2023-05-18T15:15:26;13.15;;;4.10;;
46415;SDS011;32620;51.704;7.822;2023-05-18T15:17:52;9.98;;;3.20;;
46415;SDS011;32620;51.704;7.822;2023-05-18T15:25:24;11.70;;;3.95;;
46415;SDS011;32620;51.704;7.822;2023-05-18T15:27:50;10.38;;;4.13;;
46415;SDS011;32620;51.704;7.822;2023-05-18T15:33:01;11.60;;;3.88;;
46415;SDS011;32620;51.704;7.822;2023-05-18T15:38:06;8.00;;;3.58;;
46415;SDS011;32620;51.704;7.822;2023-05-18T15:40:31;11.55;;;3.80;;
46415;SDS011;32620;51.704;7.822;2023-05-18T15:42:58;7.60;;;3.53;;
46415;SDS011;32620;51.704;7.822;2023-05-18T15:47:53;8.35;;;3.78;;
46415;SDS011;32620;51.704;7.822;2023-05-18T15:50:43;8.70;;;3.70;;
46415;SDS011;32620;51.704;7.822;2023-05-18T15:53:12;9.75;;;4.03;;
46415;SDS011;32620;51.704;7.822;2023-05-18T15:55:39;7.65;;;3.28;;
46415;SDS011;32620;51.704;7.822;2023-05-18T15:58:05;11.02;;;3.22;;
46415;SDS011;32620;51.704;7.822;2023-05-18T16:03:05;9.80;;;3.60;;
46415;SDS011;32620;51.704;7.822;2023-05-18T16:08:10;8.80;;;4.00;;
46415;SDS011;32620;51.704;7.822;2023-05-18T16:10:36;10.13;;;3.58;;
46415;SDS011;32620;51.704;7.822;2023-05-18T16:13:02;10.38;;;3.42;;
46415;SDS011;32620;51.704;7.822;2023-05-18T16:15:31;10.65;;;3.55;;
46415;SDS011;32620;51.704;7.822;2023-05-18T16:20:33;7.30;;;3.53;;
46415;SDS011;32620;51.704;7.822;2023-05-18T16:25:34;8.77;;;3.60;;
46415;SDS011;32620;51.704;7.822;2023-05-18T16:27:59;9.82;;;3.53;;
46415;SDS011;32620;51.704;7.822;2023-05-18T16:30:28;9.38;;;3.53;;
46415;SDS011;32620;51.704;7.822;2023-05-18T16:32:54;12.10;;;3.67;;
46415;SDS011;32620;51.704;7.822;2023-05-18T16:35:19;9.75;;;3.40;;
46415;SDS011;32620;51.704;7.822;2023-05-18T16:37:45;10.75;;;3.95;;
46415;SDS011;32620;51.704;7.822;2023-05-18T16:43:11;8.80;;;3.53;;
46415;SDS011;32620;51.704;7.822;2023-05-18T16:45:37;7.25;;;3.75;;
46415;SDS011;32620;51.704;7.822;2023-05-18T16:48:03;9.50;;;3.47;;
46415;SDS011;32620;51.704;7.822;2023-05-18T16:50:29;10.68;;;3.63;;
46415;SDS011;32620;51.704;7.822;2023-05-18T16:52:55;10.57;;;3.40;;
46415;SDS011;32620;51.704;7.822;2023-05-18T16:55:21;15.80;;;4.32;;
46415;SDS011;32620;51.704;7.822;2023-05-18T16:57:48;12.40;;;3.85;;
46415;SDS011;32620;51.704;7.822;2023-05-18T17:02:52;10.38;;;4.00;;
46415;SDS011;32620;51.704;7.822;2023-05-18T17:07:49;12.07;;;4.13;;
46415;SDS011;32620;51.704;7.822;2023-05-18T17:10:15;9.25;;;3.45;;
46415;SDS011;32620;51.704;7.822;2023-05-18T17:12:41;13.73;;;4.32;;
46415;SDS011;32620;51.704;7.822;2023-05-18T17:15:07;12.75;;;4.40;;
46415;SDS011;32620;51.704;7.822;2023-05-18T17:20:12;9.30;;;3.58;;
46415;SDS011;32620;51.704;7.822;2023-05-18T17:22:42;11.45;;;3.72;;
46415;SDS011;32620;51.704;7.822;2023-05-18T17:25:08;9.32;;;3.40;;
46415;SDS011;32620;51.704;7.822;2023-05-18T17:27:33;8.77;;;3.50;;
46415;SDS011;32620;51.704;7.822;2023-05-18T17:29:59;11.65;;;4.00;;
46415;SDS011;32620;51.704;7.822;2023-05-18T17:32:25;10.10;;;3.70;;
46415;SDS011;32620;51.704;7.822;2023-05-18T17:34:50;11.60;;;3.90;;
46415;SDS011;32620;51.704;7.822;2023-05-18T17:37:16;15.52;;;4.40;;
46415;SDS011;32620;51.704;7.822;2023-05-18T17:42:18;10.40;;;3.50;;
46415;SDS011;32620;51.704;7.822;2023-05-18T17:44:44;9.80;;;3.85;;
46415;SDS011;32620;51.704;7.822;2023-05-18T17:47:10;7.13;;;3.38;;
46415;SDS011;32620;51.704;7.822;2023-05-18T17:49:35;11.48;;;3.70;;
46415;SDS011;32620;51.704;7.822;2023-05-18T17:52:01;14.52;;;4.32;;
46415;SDS011;32620;51.704;7.822;2023-05-18T17:54:27;10.68;;;3.80;;
46415;SDS011;32620;51.704;7.822;2023-05-18T17:59:24;12.05;;;3.75;;
46415;SDS011;32620;51.704;7.822;2023-05-18T18:01:49;12.52;;;3.72;;
46415;SDS011;32620;51.704;7.822;2023-05-18T18:04:15;10.23;;;4.05;;
46415;SDS011;32620;51.704;7.822;2023-05-18T18:06:41;8.10;;;3.45;;
46415;SDS011;32620;51.704;7.822;2023-05-18T18:11:42;12.38;;;4.30;;
46415;SDS011;32620;51.704;7.822;2023-05-18T18:14:08;11.80;;;3.80;;
46415;SDS011;32620;51.704;7.822;2023-05-18T18:16:35;10.70;;;3.75;;
46415;SDS011;32620;51.704;7.822;2023-05-18T18:19:09;12.20;;;4.25;;
46415;SDS011;32620;51.704;7.822;2023-05-18T18:24:30;9.07;;;3.83;;
46415;SDS011;32620;51.704;7.822;2023-05-18T18:26:56;12.65;;;4.30;;
46415;SDS011;32620;51.704;7.822;2023-05-18T18:29:21;12.05;;;3.80;;
46415;SDS011;32620;51.704;7.822;2023-05-18T18:34:15;10.48;;;4.00;;
46415;SDS011;32620;51.704;7.822;2023-05-18T18:36:40;13.75;;;4.13;;
46415;SDS011;32620;51.704;7.822;2023-05-18T18:39:06;10.63;;;4.20;;
46415;SDS011;32620;51.704;7.822;2023-05-18T18:41:31;9.75;;;3.88;;
46415;SDS011;32620;51.704;7.822;2023-05-18T18:44:03;10.68;;;4.05;;
